createdAt,value
2018-05-16T00:01:20.117Z,6.90
2018-05-16T00:03:48.584Z,6.60
2018-05-16T00:06:16.285Z,6.30
2018-05-16T00:08:43.980Z,6.28
2018-05-16T00:11:11.681Z,6.43
2018-05-16T00:13:39.360Z,5.93
2018-05-16T00:16:07.820Z,6.53
2018-05-16T00:18:35.518Z,6.43
2018-05-16T00:21:03.244Z,6.10
2018-05-16T00:23:30.937Z,6.97
2018-05-16T00:25:59.390Z,6.00
2018-05-16T00:28:27.108Z,6.40
2018-05-16T00:30:54.810Z,6.35
2018-05-16T00:33:22.531Z,6.72
2018-05-16T00:35:50.228Z,6.65
2018-05-16T00:38:18.069Z,6.70
2018-05-16T00:40:45.823Z,6.40
2018-05-16T00:43:13.538Z,6.50
2018-05-16T00:45:41.242Z,6.60
2018-05-16T00:48:08.944Z,6.87
2018-05-16T00:50:36.648Z,6.20
2018-05-16T00:53:05.101Z,6.72
2018-05-16T00:55:32.814Z,6.32
2018-05-16T00:58:00.513Z,6.12
2018-05-16T01:00:28.222Z,7.75
2018-05-16T01:02:56.680Z,6.47
2018-05-16T01:05:24.385Z,6.18
2018-05-16T01:07:52.077Z,6.47
2018-05-16T01:10:19.779Z,6.22
2018-05-16T01:12:47.638Z,6.47
2018-05-16T01:15:15.336Z,6.03
2018-05-16T01:17:43.053Z,5.93
2018-05-16T01:20:10.740Z,6.95
2018-05-16T01:22:38.424Z,6.28
2018-05-16T01:25:06.887Z,5.85
2018-05-16T01:27:34.623Z,6.62
2018-05-16T01:30:02.320Z,6.50
2018-05-16T01:32:30.785Z,6.40
2018-05-16T01:34:58.478Z,6.22
2018-05-16T01:37:26.177Z,6.53
2018-05-16T01:39:53.905Z,5.87
2018-05-16T01:42:22.361Z,6.43
2018-05-16T01:44:50.145Z,6.40
2018-05-16T01:47:18.614Z,6.35
2018-05-16T01:49:46.341Z,5.93
2018-05-16T01:52:14.039Z,6.10
2018-05-16T01:54:41.737Z,6.53
2018-05-16T01:57:09.430Z,6.00
2018-05-16T01:59:37.117Z,6.28
2018-05-16T02:02:04.808Z,6.22
2018-05-16T02:04:33.279Z,6.10
2018-05-16T02:07:01.757Z,5.95
2018-05-16T02:09:29.490Z,6.35
2018-05-16T02:11:57.200Z,6.65
2018-05-16T02:14:25.682Z,5.93
2018-05-16T02:16:54.125Z,5.90
2018-05-16T02:19:21.814Z,6.18
2018-05-16T02:21:50.285Z,6.40
2018-05-16T02:24:18.016Z,6.22
2018-05-16T02:26:45.804Z,5.95
2018-05-16T02:29:13.565Z,6.43
2018-05-16T02:31:41.309Z,6.03
2018-05-16T02:34:09.006Z,6.07
2018-05-16T02:36:36.697Z,6.25
2018-05-16T02:39:05.965Z,6.37
2018-05-16T02:41:33.674Z,6.00
2018-05-16T02:44:02.134Z,6.12
2018-05-16T02:46:29.828Z,6.68
2018-05-16T02:48:57.513Z,6.40
2018-05-16T02:51:25.207Z,6.68
2018-05-16T02:53:52.925Z,6.25
2018-05-16T02:56:21.463Z,5.72
2018-05-16T02:58:49.148Z,6.28
2018-05-16T03:01:17.602Z,6.60
2018-05-16T03:03:45.307Z,6.80
2018-05-16T03:06:13.037Z,6.53
2018-05-16T03:08:40.736Z,6.10
2018-05-16T03:11:08.465Z,6.25
2018-05-16T03:13:36.157Z,6.97
2018-05-16T03:16:03.875Z,6.45
2018-05-16T03:18:31.583Z,6.00
2018-05-16T03:21:00.053Z,6.50
2018-05-16T03:23:28.516Z,6.40
2018-05-16T03:25:57.155Z,6.00
2018-05-16T03:28:24.870Z,6.22
2018-05-16T03:30:52.563Z,6.50
2018-05-16T03:33:21.047Z,6.25
2018-05-16T03:35:49.534Z,6.05
2018-05-16T03:38:17.224Z,6.07
2018-05-16T03:40:44.916Z,6.28
2018-05-16T03:43:13.384Z,6.32
2018-05-16T03:45:41.083Z,6.60
2018-05-16T03:48:09.550Z,5.70
2018-05-16T03:50:37.375Z,6.22
2018-05-16T03:53:05.065Z,6.12
2018-05-16T03:55:32.768Z,5.97
2018-05-16T03:58:21.869Z,6.37
2018-05-16T04:01:01.358Z,6.18
2018-05-16T04:03:40.716Z,6.28
2018-05-16T04:06:09.177Z,6.32
2018-05-16T04:08:36.895Z,6.28
2018-05-16T04:11:04.601Z,6.50
2018-05-16T04:13:32.324Z,6.20
2018-05-16T04:16:00.123Z,6.05
2018-05-16T04:18:27.835Z,6.03
2018-05-16T04:20:55.517Z,6.32
2018-05-16T04:23:23.203Z,6.30
2018-05-16T04:25:50.902Z,6.25
2018-05-16T04:28:19.360Z,6.25
2018-05-16T04:30:47.494Z,6.50
2018-05-16T04:33:15.190Z,6.12
2018-05-16T04:35:42.894Z,5.97
2018-05-16T04:38:11.362Z,6.62
2018-05-16T04:40:39.854Z,6.05
2018-05-16T04:43:08.330Z,5.87
2018-05-16T04:45:36.799Z,6.00
2018-05-16T04:48:04.492Z,6.03
2018-05-16T04:50:32.191Z,6.12
2018-05-16T04:52:59.898Z,5.82
2018-05-16T04:55:28.352Z,6.25
2018-05-16T04:57:56.049Z,5.82
2018-05-16T05:00:24.535Z,6.72
2018-05-16T05:02:53.014Z,6.03
2018-05-16T05:05:21.481Z,6.10
2018-05-16T05:07:49.170Z,6.12
2018-05-16T05:10:16.905Z,5.65
2018-05-16T05:12:44.601Z,6.07
2018-05-16T05:15:12.294Z,5.97
2018-05-16T05:17:39.989Z,6.03
2018-05-16T05:20:07.675Z,6.00
2018-05-16T05:22:36.154Z,6.07
2018-05-16T05:25:04.643Z,5.90
2018-05-16T05:27:33.123Z,5.80
2018-05-16T05:30:01.601Z,8.18
2018-05-16T05:32:30.057Z,6.32
2018-05-16T05:34:57.751Z,6.20
2018-05-16T05:37:25.495Z,6.30
2018-05-16T05:39:53.197Z,6.30
2018-05-16T05:42:20.905Z,8.13
2018-05-16T05:44:49.121Z,6.25
2018-05-16T05:47:17.624Z,5.80
2018-05-16T05:49:45.316Z,6.20
2018-05-16T05:52:13.020Z,5.57
2018-05-16T05:54:41.591Z,5.90
2018-05-16T05:57:09.245Z,5.72
2018-05-16T05:59:36.933Z,6.47
2018-05-16T06:02:05.928Z,6.80
2018-05-16T06:04:34.390Z,5.85
2018-05-16T06:07:02.108Z,7.72
2018-05-16T06:09:29.851Z,6.05
2018-05-16T06:11:57.541Z,6.25
2018-05-16T06:14:25.235Z,6.20
2018-05-16T06:16:52.940Z,6.12
2018-05-16T06:19:21.417Z,6.62
2018-05-16T06:21:49.877Z,6.57
2018-05-16T06:24:17.581Z,7.97
2018-05-16T06:26:45.278Z,6.07
2018-05-16T06:29:12.981Z,6.00
2018-05-16T06:31:41.478Z,6.80
2018-05-16T06:34:09.178Z,6.35
2018-05-16T06:36:36.912Z,6.15
2018-05-16T06:39:04.613Z,6.43
2018-05-16T06:41:32.363Z,6.03
2018-05-16T06:44:00.063Z,5.55
2018-05-16T06:46:27.751Z,6.55
2018-05-16T06:48:56.213Z,7.47
2018-05-16T06:51:23.937Z,5.97
2018-05-16T06:53:51.643Z,5.55
2018-05-16T06:56:19.433Z,6.03
2018-05-16T06:58:47.878Z,5.82
2018-05-16T07:01:15.690Z,6.12
2018-05-16T07:03:43.384Z,5.82
2018-05-16T07:06:11.079Z,6.25
2018-05-16T07:08:38.783Z,5.90
2018-05-16T07:11:06.484Z,5.87
2018-05-16T07:13:34.254Z,5.90
2018-05-16T07:16:01.958Z,6.03
2018-05-16T07:18:30.454Z,5.78
2018-05-16T07:20:58.155Z,5.75
2018-05-16T07:23:25.848Z,6.28
2018-05-16T07:25:53.542Z,6.28
2018-05-16T07:28:22.012Z,6.15
2018-05-16T07:30:51.514Z,6.00
2018-05-16T07:33:19.963Z,5.82
2018-05-16T07:35:47.648Z,5.57
2018-05-16T07:38:15.344Z,5.90
2018-05-16T07:40:43.033Z,5.93
2018-05-16T07:43:10.742Z,6.03
2018-05-16T07:45:38.443Z,5.97
2018-05-16T07:48:06.140Z,5.50
2018-05-16T07:50:33.841Z,5.80
2018-05-16T07:53:02.299Z,5.80
2018-05-16T07:55:30.024Z,6.22
2018-05-16T07:57:57.729Z,5.60
2018-05-16T08:00:25.430Z,6.30
2018-05-16T08:02:53.152Z,5.70
2018-05-16T08:05:20.867Z,5.37
2018-05-16T08:07:48.561Z,5.93
2018-05-16T08:10:16.253Z,6.05
2018-05-16T08:12:43.954Z,5.45
2018-05-16T08:15:11.636Z,5.72
2018-05-16T08:17:39.353Z,5.80
2018-05-16T08:20:07.068Z,5.60
2018-05-16T08:22:34.775Z,5.37
2018-05-16T08:25:02.481Z,5.80
2018-05-16T08:27:30.174Z,5.60
2018-05-16T08:29:57.874Z,5.57
2018-05-16T08:32:25.590Z,5.70
2018-05-16T08:34:53.277Z,5.37
2018-05-16T08:37:20.974Z,5.78
2018-05-16T08:39:49.461Z,5.50
2018-05-16T08:42:17.925Z,5.35
2018-05-16T08:44:46.388Z,5.68
2018-05-16T08:47:14.076Z,5.62
2018-05-16T08:49:42.550Z,5.37
2018-05-16T08:52:10.254Z,5.78
2018-05-16T08:54:37.965Z,5.65
2018-05-16T08:57:05.671Z,5.32
2018-05-16T08:59:33.377Z,5.22
2018-05-16T09:02:01.103Z,5.70
2018-05-16T09:04:28.801Z,5.47
2018-05-16T09:06:56.509Z,4.90
2018-05-16T09:09:24.969Z,5.80
2018-05-16T09:11:52.672Z,5.60
2018-05-16T09:14:20.370Z,5.32
2018-05-16T09:16:48.074Z,4.70
2018-05-16T09:19:15.791Z,5.53
2018-05-16T09:21:43.493Z,5.40
2018-05-16T09:24:11.257Z,5.57
2018-05-16T09:26:38.952Z,4.97
2018-05-16T09:29:07.421Z,5.22
2018-05-16T09:31:35.888Z,5.93
2018-05-16T09:34:03.622Z,5.28
2018-05-16T09:36:31.304Z,5.35
2018-05-16T09:38:58.996Z,5.43
2018-05-16T09:41:27.536Z,5.10
2018-05-16T09:43:55.229Z,5.55
2018-05-16T09:46:22.979Z,5.25
2018-05-16T09:48:52.100Z,5.00
2018-05-16T09:51:20.583Z,5.35
2018-05-16T09:53:49.055Z,5.37
2018-05-16T09:56:16.755Z,5.07
2018-05-16T09:58:44.458Z,5.55
2018-05-16T10:01:12.143Z,5.35
2018-05-16T10:03:39.832Z,5.28
2018-05-16T10:06:08.289Z,5.20
2018-05-16T10:08:36.009Z,5.30
2018-05-16T10:11:03.728Z,5.37
2018-05-16T10:13:32.185Z,5.43
2018-05-16T10:15:59.872Z,5.37
2018-05-16T10:18:28.342Z,5.30
2018-05-16T10:20:56.032Z,5.25
2018-05-16T10:23:24.501Z,5.32
2018-05-16T10:25:52.948Z,5.60
2018-05-16T10:28:20.657Z,5.60
2018-05-16T10:30:49.133Z,5.18
2018-05-16T10:33:17.609Z,5.20
2018-05-16T10:35:46.095Z,5.10
2018-05-16T10:38:14.569Z,5.60
2018-05-16T10:40:43.042Z,5.28
2018-05-16T10:43:10.749Z,5.30
2018-05-16T10:45:38.442Z,5.30
2018-05-16T10:48:06.161Z,5.80
2018-05-16T10:50:34.672Z,5.00
2018-05-16T10:53:02.383Z,4.90
2018-05-16T10:55:30.109Z,4.90
2018-05-16T10:57:57.800Z,5.32
2018-05-16T11:00:25.497Z,4.65
2018-05-16T11:02:53.977Z,5.10
2018-05-16T11:05:22.441Z,5.47
2018-05-16T11:07:50.912Z,5.22
2018-05-16T11:10:18.646Z,5.32
2018-05-16T11:12:46.356Z,4.78
2018-05-16T11:15:14.851Z,5.22
2018-05-16T11:17:43.341Z,4.97
2018-05-16T11:20:11.811Z,5.40
2018-05-16T11:22:40.281Z,4.50
2018-05-16T11:25:08.739Z,5.10
2018-05-16T11:27:36.446Z,5.20
2018-05-16T11:30:04.914Z,4.85
2018-05-16T11:32:33.369Z,4.93
2018-05-16T11:35:01.075Z,5.37
2018-05-16T11:37:29.591Z,5.12
2018-05-16T11:39:57.284Z,5.15
2018-05-16T11:42:24.992Z,5.25
2018-05-16T11:44:53.005Z,5.22
2018-05-16T11:47:20.696Z,5.15
2018-05-16T11:49:48.387Z,4.87
2018-05-16T11:52:16.087Z,4.85
2018-05-16T11:54:43.776Z,5.22
2018-05-16T11:57:11.461Z,5.03
2018-05-16T11:59:39.950Z,4.97
2018-05-16T12:02:08.401Z,5.07
2018-05-16T12:04:36.107Z,5.00
2018-05-16T12:07:04.654Z,4.90
2018-05-16T12:09:32.346Z,4.65
2018-05-16T12:12:00.809Z,4.93
2018-05-16T12:14:29.303Z,4.82
2018-05-16T12:16:57.019Z,5.30
2018-05-16T12:19:24.727Z,4.93
2018-05-16T12:21:53.235Z,4.50
2018-05-16T12:24:20.932Z,4.82
2018-05-16T12:26:48.646Z,5.00
2018-05-16T12:29:17.219Z,4.72
2018-05-16T12:31:44.852Z,4.85
2018-05-16T12:34:12.540Z,5.12
2018-05-16T12:36:40.324Z,5.65
2018-05-16T12:39:07.974Z,4.82
2018-05-16T12:41:36.439Z,4.80
2018-05-16T12:44:04.166Z,5.20
2018-05-16T12:46:31.974Z,5.22
2018-05-16T12:48:59.616Z,4.78
2018-05-16T12:51:27.318Z,4.75
2018-05-16T12:53:55.785Z,5.37
2018-05-16T12:56:23.490Z,4.80
2018-05-16T12:58:51.192Z,5.35
2018-05-16T13:01:18.881Z,5.30
2018-05-16T13:03:47.350Z,5.60
2018-05-16T13:06:15.072Z,5.12
2018-05-16T13:08:42.770Z,5.50
2018-05-16T13:11:10.466Z,5.15
2018-05-16T13:13:38.920Z,5.20
2018-05-16T13:16:06.650Z,5.55
2018-05-16T13:18:34.338Z,5.55
2018-05-16T13:21:02.043Z,5.10
2018-05-16T13:23:30.513Z,5.18
2018-05-16T13:25:58.981Z,5.70
2018-05-16T13:28:26.707Z,5.40
2018-05-16T13:30:55.241Z,5.72
2018-05-16T13:33:23.701Z,5.37
2018-05-16T13:35:51.420Z,5.80
2018-05-16T13:38:19.119Z,5.72
2018-05-16T13:40:46.826Z,5.10
2018-05-16T13:43:15.306Z,5.25
2018-05-16T13:45:43.784Z,5.65
2018-05-16T13:48:12.260Z,5.05
2018-05-16T13:50:40.006Z,5.50
2018-05-16T13:53:07.713Z,4.97
2018-05-16T13:55:36.173Z,5.55
2018-05-16T13:58:04.646Z,4.90
2018-05-16T14:00:32.328Z,5.43
2018-05-16T14:03:00.790Z,5.32
2018-05-16T14:05:28.532Z,5.50
2018-05-16T14:07:56.225Z,5.30
2018-05-16T14:10:24.703Z,5.43
2018-05-16T14:12:52.410Z,5.97
2018-05-16T14:15:20.213Z,5.30
2018-05-16T14:17:47.917Z,5.32
2018-05-16T14:20:16.374Z,5.68
2018-05-16T14:22:44.082Z,5.60
2018-05-16T14:25:11.801Z,5.13
2018-05-16T14:27:39.502Z,5.60
2018-05-16T14:30:07.213Z,5.32
2018-05-16T14:32:34.923Z,5.47
2018-05-16T14:35:02.644Z,5.62
2018-05-16T14:37:30.361Z,6.15
2018-05-16T14:39:58.057Z,5.12
2018-05-16T14:42:25.762Z,5.70
2018-05-16T14:44:54.565Z,5.85
2018-05-16T14:47:23.041Z,5.95
2018-05-16T14:49:51.497Z,6.70
2018-05-16T14:52:19.196Z,6.07
2018-05-16T14:54:46.901Z,6.57
2018-05-16T14:57:14.600Z,6.30
2018-05-16T14:59:43.057Z,6.30
2018-05-16T15:02:10.765Z,5.87
2018-05-16T15:04:39.248Z,6.07
2018-05-16T15:07:07.696Z,6.78
2018-05-16T15:09:35.412Z,6.12
2018-05-16T15:12:03.107Z,6.00
2018-05-16T15:14:30.875Z,5.62
2018-05-16T15:16:58.577Z,5.85
2018-05-16T15:19:27.062Z,6.30
2018-05-16T15:21:55.533Z,6.55
2018-05-16T15:24:23.988Z,6.18
2018-05-16T15:26:51.680Z,6.30
2018-05-16T15:29:20.146Z,6.10
2018-05-16T15:31:47.849Z,6.28
2018-05-16T15:34:15.541Z,5.78
2018-05-16T15:36:43.260Z,6.20
2018-05-16T15:39:11.716Z,6.35
2018-05-16T15:41:39.443Z,6.10
2018-05-16T15:44:07.142Z,6.40
2018-05-16T15:46:34.820Z,6.00
2018-05-16T15:49:02.514Z,6.05
2018-05-16T15:51:30.210Z,5.62
2018-05-16T15:53:57.912Z,5.60
2018-05-16T15:56:25.618Z,6.07
2018-05-16T15:58:53.341Z,6.35
2018-05-16T16:01:21.808Z,6.35
2018-05-16T16:03:49.496Z,5.90
2018-05-16T16:06:17.973Z,6.25
2018-05-16T16:08:46.433Z,6.03
2018-05-16T16:11:14.132Z,5.80
2018-05-16T16:13:42.604Z,5.95
2018-05-16T16:16:11.082Z,6.10
2018-05-16T16:18:39.591Z,6.32
2018-05-16T16:21:07.291Z,6.03
2018-05-16T16:23:34.978Z,5.70
2018-05-16T16:26:02.721Z,6.10
2018-05-16T16:28:30.440Z,6.37
2018-05-16T16:30:58.151Z,6.05
2018-05-16T16:33:25.845Z,5.97
2018-05-16T16:35:53.571Z,6.07
2018-05-16T16:38:21.288Z,6.25
2018-05-16T16:40:49.784Z,6.45
2018-05-16T16:43:17.493Z,6.22
2018-05-16T16:45:45.211Z,6.53
2018-05-16T16:48:12.910Z,6.35
2018-05-16T16:50:40.633Z,5.90
2018-05-16T16:53:08.351Z,6.07
2018-05-16T16:55:36.053Z,6.28
2018-05-16T16:58:04.538Z,6.03
2018-05-16T17:00:33.015Z,6.65
2018-05-16T17:03:01.503Z,6.30
2018-05-16T17:05:30.794Z,6.53
2018-05-16T17:07:59.265Z,6.50
2018-05-16T17:10:26.968Z,6.10
2018-05-16T17:12:55.764Z,6.10
2018-05-16T17:15:23.461Z,6.20
2018-05-16T17:17:51.170Z,5.97
2018-05-16T17:20:19.668Z,6.35
2018-05-16T17:22:47.401Z,6.68
2018-05-16T17:25:15.882Z,6.50
2018-05-16T17:27:44.349Z,6.10
2018-05-16T17:30:12.067Z,6.05
2018-05-16T17:32:39.760Z,6.65
2018-05-16T17:35:07.467Z,6.50
2018-05-16T17:37:35.939Z,6.72
2018-05-16T17:40:04.406Z,6.20
2018-05-16T17:42:32.107Z,6.70
2018-05-16T17:44:59.840Z,6.55
2018-05-16T17:47:27.536Z,6.22
2018-05-16T17:49:55.236Z,6.55
2018-05-16T17:52:22.933Z,6.60
2018-05-16T17:54:50.646Z,6.93
2018-05-16T17:57:18.341Z,6.53
2018-05-16T17:59:46.040Z,6.22
2018-05-16T18:02:14.516Z,7.10
2018-05-16T18:04:43.001Z,7.03
2018-05-16T18:07:11.454Z,6.70
2018-05-16T18:09:39.159Z,7.60
2018-05-16T18:12:06.853Z,6.68
2018-05-16T18:17:51.157Z,6.65
2018-05-16T18:20:18.859Z,6.97
2018-05-16T18:22:46.573Z,7.25
2018-05-16T18:25:14.291Z,7.35
2018-05-16T18:27:41.990Z,7.20
2018-05-16T18:30:09.800Z,7.25
2018-05-16T18:32:37.503Z,7.20
2018-05-16T18:35:05.274Z,7.40
2018-05-16T19:44:52.033Z,8.13
2018-05-16T19:47:19.731Z,5.87
2018-05-16T19:50:44.426Z,5.00
2018-05-16T19:53:12.204Z,4.87
2018-05-16T19:55:40.294Z,5.30
2018-05-16T19:58:08.403Z,5.10
2018-05-16T20:00:36.917Z,5.00
2018-05-16T20:03:06.121Z,5.20
2018-05-16T20:05:33.824Z,5.07
2018-05-16T20:08:01.529Z,4.80
2018-05-16T20:10:29.251Z,8.17
2018-05-16T20:12:57.629Z,8.27
2018-05-16T20:15:25.350Z,4.83
2018-05-16T20:17:53.031Z,6.33
2018-05-16T20:20:21.113Z,4.87
2018-05-16T20:22:48.801Z,6.10
2018-05-16T20:25:17.274Z,5.27
2018-05-16T20:27:45.744Z,5.37
2018-05-16T20:30:14.214Z,5.10
2018-05-16T20:32:42.702Z,5.17
2018-05-16T20:35:10.794Z,4.97
2018-05-16T20:37:39.834Z,4.60
2018-05-16T20:40:07.540Z,5.73
2018-05-16T20:42:35.631Z,6.70
2018-05-16T20:45:03.309Z,4.90
2018-05-16T20:47:31.773Z,8.27
2018-05-16T20:49:59.471Z,6.50
2018-05-16T20:52:27.920Z,5.47
2018-05-16T20:54:57.508Z,6.80
2018-05-16T20:57:25.273Z,5.77
2018-05-16T20:59:52.973Z,5.60
2018-05-16T21:02:21.062Z,5.70
2018-05-16T21:04:49.643Z,7.93
2018-05-16T21:07:17.803Z,5.90
2018-05-16T21:09:45.894Z,6.30
2018-05-16T21:12:14.387Z,7.93
2018-05-16T21:14:42.492Z,6.30
2018-05-16T21:17:10.967Z,5.30
2018-05-16T21:19:39.052Z,7.07
2018-05-16T21:22:07.517Z,5.30
2018-05-16T21:24:36.715Z,7.70
2018-05-16T21:27:04.411Z,6.93
2018-05-16T21:29:33.228Z,7.77
2018-05-16T21:32:01.700Z,6.90
2018-05-16T21:34:30.162Z,9.03
2018-05-16T21:36:59.046Z,6.50
2018-05-16T21:39:27.527Z,5.97
2018-05-16T21:41:56.722Z,6.00
2018-05-16T21:44:24.431Z,7.47
2018-05-16T21:46:53.496Z,8.27
2018-05-16T21:49:21.958Z,13.57
2018-05-16T21:51:50.057Z,8.77
2018-05-16T21:54:20.285Z,7.87
2018-05-16T21:56:49.408Z,6.53
2018-05-16T21:59:17.840Z,7.50
2018-05-16T22:01:46.341Z,7.67
2018-05-16T22:04:14.431Z,13.97
2018-05-16T22:06:42.897Z,11.10
2018-05-16T22:09:10.980Z,9.87
2018-05-16T22:11:39.449Z,10.13
2018-05-16T22:14:07.886Z,7.00
2018-05-16T22:16:35.981Z,10.00
2018-05-16T22:19:04.436Z,10.10
2018-05-16T22:21:32.532Z,9.53
2018-05-16T22:24:01.695Z,7.00
2018-05-16T22:26:29.400Z,9.10
2018-05-16T22:28:57.489Z,8.67
2018-05-16T22:31:31.410Z,7.10
2018-05-16T22:34:05.421Z,8.27
2018-05-16T22:36:40.263Z,7.93
2018-05-16T22:39:14.366Z,13.07
2018-05-16T22:41:49.205Z,9.70
2018-05-16T22:44:32.535Z,8.10
2018-05-16T22:47:01.504Z,9.77
2018-05-16T22:49:29.969Z,7.53
2018-05-16T22:51:59.186Z,10.83
2018-05-16T22:54:28.216Z,8.30
2018-05-16T22:56:56.682Z,8.13
2018-05-16T22:59:25.273Z,9.77
2018-05-16T23:01:53.317Z,8.10
2018-05-16T23:04:21.775Z,8.30
2018-05-16T23:06:50.976Z,10.10
2018-05-16T23:09:19.432Z,9.60
2018-05-16T23:11:47.530Z,11.23
2018-05-16T23:14:15.228Z,7.93
2018-05-16T23:16:44.110Z,8.87
2018-05-16T23:19:12.573Z,8.30
2018-05-16T23:21:41.792Z,8.10
2018-05-16T23:24:10.974Z,8.07
2018-05-16T23:26:39.439Z,11.60
2018-05-16T23:29:08.674Z,11.67
2018-05-16T23:31:37.744Z,9.70
2018-05-16T23:34:06.226Z,10.90
2018-05-16T23:36:34.692Z,8.00
2018-05-16T23:39:02.811Z,11.60
2018-05-16T23:41:31.287Z,12.67
2018-05-16T23:43:59.377Z,9.70
2018-05-16T23:46:27.843Z,9.63
2018-05-16T23:48:56.309Z,10.07
2018-05-16T23:51:24.409Z,10.70
2018-05-16T23:53:53.621Z,10.53
2018-05-16T23:56:22.088Z,9.73
2018-05-16T23:58:50.181Z,9.17
